Time;durP1;ratioP1;P1;durP2;ratioP2;P2;SDS_P1;SDS_P2;PMS_P1;PMS_P2;Temp;Humidity;BMP_temperature;BMP_pressure;BME280_temperature;BME280_humidity;BME280_pressure;Samples;Min_cycle;Max_cycle;Signal;HPM_P1;HPM_P2
2022/01/10 00:00:22;;;;;;;384.03;29.23;;;3.60;99.90;;;;;;5068479;28;20575;-48
2022/01/10 00:02:51;;;;;;;74.77;11.50;;;3.50;99.90;;;;;;5065576;28;20861;-48
2022/01/10 00:05:18;;;;;;;175.43;20.97;;;3.40;99.90;;;;;;5071178;28;20539;-48
2022/01/10 00:07:46;;;;;;;70.47;9.47;;;3.20;99.90;;;;;;5076375;28;20477;-48
2022/01/10 00:10:14;;;;;;;169.57;17.97;;;3.20;99.90;;;;;;5081392;28;20482;-48
2022/01/10 00:12:41;;;;;;;246.10;21.57;;;3.20;99.90;;;;;;5079577;28;20485;-48
2022/01/10 00:15:09;;;;;;;214.97;20.57;;;3.10;99.90;;;;;;5087233;28;20531;-48
2022/01/10 00:17:38;;;;;;;121.00;15.47;;;3.00;99.90;;;;;;5079715;28;20498;-48
2022/01/10 00:20:06;;;;;;;28.83;7.73;;;3.00;99.90;;;;;;5062767;28;20485;-48
2022/01/10 00:22:33;;;;;;;70.73;9.43;;;3.00;99.90;;;;;;5081669;28;20475;-48
2022/01/10 00:25:00;;;;;;;53.57;10.43;;;3.00;99.90;;;;;;5060244;28;20509;-48
2022/01/10 00:27:28;;;;;;;48.43;12.00;;;2.90;99.90;;;;;;5090085;28;20572;-48
2022/01/10 00:29:54;;;;;;;45.40;8.53;;;2.80;99.90;;;;;;5070246;28;20487;-48
2022/01/10 00:32:23;;;;;;;47.40;8.17;;;2.70;99.90;;;;;;5096515;27;21028;-48
2022/01/10 00:34:49;;;;;;;91.77;11.27;;;2.60;99.90;;;;;;5078870;27;20477;-48
2022/01/10 00:37:16;;;;;;;108.43;14.07;;;2.50;99.90;;;;;;5081277;28;20501;-49
2022/01/10 00:39:43;;;;;;;68.17;8.30;;;2.50;99.90;;;;;;5072726;28;20538;-48
2022/01/10 00:42:10;;;;;;;49.40;7.53;;;2.40;99.90;;;;;;5087738;28;20477;-49
2022/01/10 00:44:44;;;;;;;49.47;10.13;;;2.40;99.90;;;;;;5080419;28;20478;-48
2022/01/10 00:47:11;;;;;;;55.83;9.70;;;2.30;99.90;;;;;;5073813;28;20505;-48
2022/01/10 00:49:38;;;;;;;161.27;16.50;;;2.40;99.90;;;;;;5084261;28;20527;-48
2022/01/10 00:52:06;;;;;;;197.57;17.63;;;2.30;99.90;;;;;;5078164;28;20890;-48
2022/01/10 00:54:33;;;;;;;233.00;21.27;;;2.30;99.90;;;;;;5076782;28;20556;-48
2022/01/10 00:56:59;;;;;;;231.50;22.27;;;2.20;99.90;;;;;;5067400;28;20921;-48
2022/01/10 00:59:26;;;;;;;167.17;17.90;;;2.30;99.90;;;;;;5099543;27;20483;-49
2022/01/10 01:01:54;;;;;;;85.23;11.60;;;2.40;99.90;;;;;;5086688;27;20480;-49
2022/01/10 01:04:21;;;;;;;76.40;11.30;;;2.40;99.90;;;;;;5078370;28;20535;-48
2022/01/10 01:06:48;;;;;;;135.60;13.10;;;2.40;99.90;;;;;;5080475;28;20477;-48
2022/01/10 01:09:18;;;;;;;56.63;9.90;;;2.40;99.90;;;;;;5080623;28;20504;-48
2022/01/10 01:14:56;;;;;;;84.97;10.97;;;2.40;99.90;;;;;;5036453;28;20670;-48
2022/01/10 01:17:46;;;;;;;148.80;15.87;;;2.40;99.90;;;;;;4998869;28;20497;-48
2022/01/10 01:20:42;;;;;;;165.73;16.13;;;2.40;99.60;;;;;;5060652;28;20485;-48
2022/01/10 01:26:05;;;;;;;37.73;8.17;;;2.30;99.70;;;;;;5028643;28;21082;-48
2022/01/10 01:28:32;;;;;;;116.33;14.37;;;2.30;99.90;;;;;;5073236;28;20542;-47
2022/01/10 01:30:59;;;;;;;38.70;9.37;;;2.20;99.30;;;;;;5080059;28;20477;-48
2022/01/10 01:33:27;;;;;;;63.80;11.40;;;2.20;99.60;;;;;;5079293;28;20515;-48
2022/01/10 01:35:54;;;;;;;40.13;8.10;;;2.20;99.60;;;;;;5073409;28;20474;-48
2022/01/10 01:38:21;;;;;;;40.67;8.33;;;2.20;99.90;;;;;;5082025;28;20487;-48
2022/01/10 01:40:54;;;;;;;55.00;9.60;;;2.20;99.80;;;;;;5073986;28;21090;-48
2022/01/10 01:43:21;;;;;;;39.23;9.27;;;2.20;99.60;;;;;;5078917;28;20559;-48
2022/01/10 01:45:50;;;;;;;90.10;10.60;;;2.10;99.70;;;;;;5076056;28;20542;-48
2022/01/10 01:48:17;;;;;;;56.90;9.60;;;2.10;99.90;;;;;;5076222;28;20485;-48
2022/01/10 01:50:47;;;;;;;138.47;15.57;;;2.10;99.70;;;;;;5071612;28;20489;-48
2022/01/10 01:53:14;;;;;;;101.23;13.40;;;2.10;99.50;;;;;;5076866;28;20489;-48
2022/01/10 01:55:41;;;;;;;48.73;10.00;;;2.00;99.60;;;;;;5085656;28;20484;-48
2022/01/10 01:58:08;;;;;;;44.20;10.13;;;2.00;99.90;;;;;;5083560;28;20477;-48
2022/01/10 02:00:34;;;;;;;69.67;11.07;;;2.00;99.90;;;;;;5076066;28;20492;-48
2022/01/10 02:03:01;;;;;;;166.50;18.20;;;1.90;99.60;;;;;;5073806;28;20489;-49
2022/01/10 02:05:28;;;;;;;313.17;23.13;;;1.80;99.60;;;;;;5073159;28;20496;-48
2022/01/10 02:07:56;;;;;;;169.83;16.77;;;1.60;99.90;;;;;;5087123;28;20482;-48
2022/01/10 02:10:23;;;;;;;202.13;20.20;;;1.50;99.70;;;;;;5079417;28;20481;-48
2022/01/10 02:12:50;;;;;;;59.17;8.50;;;1.30;99.70;;;;;;5073544;28;20484;-48
2022/01/10 02:15:33;;;;;;;77.07;12.70;;;1.20;99.80;;;;;;5079453;28;20548;-48
2022/01/10 02:18:00;;;;;;;145.37;17.33;;;1.20;99.90;;;;;;5069431;28;20487;-48
2022/01/10 02:20:30;;;;;;;121.43;16.20;;;1.10;99.90;;;;;;5081285;28;20496;-48
2022/01/10 02:22:56;;;;;;;95.07;13.10;;;1.20;99.90;;;;;;5078246;28;20486;-48
2022/01/10 02:25:23;;;;;;;127.53;16.93;;;1.20;99.90;;;;;;5078531;28;20521;-48
2022/01/10 02:27:50;;;;;;;50.47;9.07;;;1.20;99.90;;;;;;5070367;28;20551;-48
2022/01/10 02:30:17;;;;;;;40.70;8.30;;;1.40;99.90;;;;;;5075806;28;20485;-48
2022/01/10 02:32:45;;;;;;;30.80;9.40;;;1.60;99.90;;;;;;5080129;28;20476;-48
2022/01/10 02:35:23;;;;;;;39.23;8.20;;;1.70;99.90;;;;;;5079085;28;20561;-48
2022/01/10 02:37:53;;;;;;;72.47;11.83;;;1.80;99.90;;;;;;5071098;28;20584;-48
2022/01/10 02:40:22;;;;;;;65.43;11.30;;;1.80;99.40;;;;;;5077434;28;21006;-48
2022/01/10 02:42:49;;;;;;;142.77;16.53;;;1.80;99.80;;;;;;5076229;28;20833;-48
2022/01/10 02:45:18;;;;;;;57.20;8.93;;;1.90;99.90;;;;;;5078125;28;20541;-48
2022/01/10 02:47:46;;;;;;;72.73;11.70;;;2.00;99.60;;;;;;5084538;28;20534;-48
2022/01/10 02:50:13;;;;;;;43.60;6.70;;;2.10;99.60;;;;;;5077722;28;20505;-48
2022/01/10 02:52:40;;;;;;;47.87;9.97;;;2.10;99.60;;;;;;5075890;28;20482;-48
2022/01/10 02:55:10;;;;;;;46.13;8.07;;;2.10;99.00;;;;;;5076701;28;20514;-48
2022/01/10 02:57:37;;;;;;;49.93;10.50;;;2.10;99.10;;;;;;5078533;28;20486;-48
2022/01/10 03:00:08;;;;;;;58.53;10.20;;;2.00;98.90;;;;;;5075901;28;20538;-48
2022/01/10 03:02:35;;;;;;;75.97;11.50;;;2.00;99.10;;;;;;5078271;28;20529;-48
2022/01/10 03:05:03;;;;;;;91.57;12.30;;;2.00;99.10;;;;;;5078480;28;20491;-48
2022/01/10 03:07:30;;;;;;;28.60;7.90;;;2.00;98.60;;;;;;5073740;28;20520;-48
2022/01/10 03:09:56;;;;;;;38.03;7.63;;;2.00;99.10;;;;;;5077041;28;20750;-48
2022/01/10 03:12:25;;;;;;;17.30;7.80;;;2.10;99.10;;;;;;5077780;28;21032;-48
2022/01/10 03:14:51;;;;;;;22.70;7.50;;;2.10;99.30;;;;;;5073832;28;20481;-48
2022/01/10 03:17:18;;;;;;;15.97;7.30;;;2.10;99.20;;;;;;5073165;28;20554;-48
2022/01/10 03:19:45;;;;;;;42.47;8.77;;;2.10;99.00;;;;;;5077876;28;20481;-48
2022/01/10 03:22:12;;;;;;;18.50;8.43;;;2.20;99.10;;;;;;5078269;28;20485;-48
2022/01/10 03:24:38;;;;;;;11.63;7.77;;;2.20;99.00;;;;;;5074817;28;20879;-47
2022/01/10 03:27:05;;;;;;;15.57;8.40;;;2.20;98.80;;;;;;5074514;28;21237;-48
2022/01/10 03:29:33;;;;;;;11.13;7.03;;;2.30;98.80;;;;;;5078907;28;20545;-48
2022/01/10 03:32:01;;;;;;;14.73;6.60;;;2.20;98.80;;;;;;5077431;28;20473;-48
2022/01/10 03:34:28;;;;;;;19.43;8.80;;;2.20;98.90;;;;;;5094137;28;20483;-48
2022/01/10 03:36:56;;;;;;;14.43;8.33;;;2.10;98.60;;;;;;5074505;28;20478;-48
2022/01/10 03:39:23;;;;;;;19.10;9.03;;;2.00;98.60;;;;;;5082811;28;20980;-49
2022/01/10 03:41:50;;;;;;;32.77;9.43;;;2.00;98.90;;;;;;5085155;28;20477;-48
2022/01/10 03:44:17;;;;;;;39.13;9.13;;;1.90;98.80;;;;;;5075883;28;20905;-48
2022/01/10 03:46:45;;;;;;;41.93;9.83;;;1.70;98.90;;;;;;5076165;28;21080;-48
2022/01/10 03:49:12;;;;;;;50.27;9.00;;;1.60;99.00;;;;;;5081951;28;20488;-47
2022/01/10 03:51:39;;;;;;;41.37;8.87;;;1.60;99.30;;;;;;5077350;28;20491;-48
2022/01/10 03:54:06;;;;;;;49.97;7.37;;;1.60;99.40;;;;;;5057026;28;20485;-49
2022/01/10 03:56:33;;;;;;;54.03;11.13;;;1.70;99.80;;;;;;5088216;28;20526;-48
2022/01/10 03:59:00;;;;;;;56.80;10.07;;;1.70;99.60;;;;;;5080686;28;20492;-48
2022/01/10 04:01:27;;;;;;;134.50;15.90;;;1.80;99.60;;;;;;5063063;28;20477;-48
2022/01/10 04:03:55;;;;;;;54.17;8.47;;;1.60;99.10;;;;;;5083148;27;20523;-48
2022/01/10 04:06:22;;;;;;;72.97;11.60;;;1.50;99.60;;;;;;5084874;27;20494;-48
2022/01/10 04:08:49;;;;;;;81.57;11.33;;;1.60;99.80;;;;;;5077779;28;20541;-48
2022/01/10 04:11:16;;;;;;;56.20;9.93;;;1.70;99.50;;;;;;5086391;28;21113;-48
2022/01/10 04:13:43;;;;;;;92.70;11.60;;;1.80;99.50;;;;;;5064144;28;20493;-48
2022/01/10 04:16:10;;;;;;;44.33;8.40;;;1.90;99.60;;;;;;5081696;28;20534;-49
2022/01/10 04:18:36;;;;;;;43.43;8.10;;;1.90;99.40;;;;;;5094559;28;21134;-48
2022/01/10 04:21:07;;;;;;;29.13;7.50;;;2.00;99.30;;;;;;5071947;28;20480;-48
2022/01/10 04:23:33;;;;;;;47.77;8.93;;;1.90;99.10;;;;;;5077081;28;20492;-48
2022/01/10 04:26:00;;;;;;;33.53;7.67;;;1.90;99.10;;;;;;5081813;28;20546;-48
2022/01/10 04:28:29;;;;;;;49.40;8.80;;;1.80;99.20;;;;;;5095656;27;20480;-48
2022/01/10 04:30:56;;;;;;;54.10;8.40;;;1.80;99.10;;;;;;5079589;28;20578;-48
2022/01/10 04:33:28;;;;;;;56.17;8.87;;;1.80;99.00;;;;;;5073085;28;20477;-48
2022/01/10 04:35:56;;;;;;;56.33;9.20;;;1.80;99.00;;;;;;5070511;28;20580;-48
2022/01/10 04:38:24;;;;;;;32.60;7.80;;;1.90;99.10;;;;;;5074708;28;20484;-48
2022/01/10 04:40:51;;;;;;;44.00;9.17;;;1.90;98.90;;;;;;5076379;28;20491;-49
2022/01/10 04:43:18;;;;;;;78.77;8.63;;;1.90;98.90;;;;;;5071283;28;20477;-48
2022/01/10 04:45:45;;;;;;;40.03;6.60;;;1.90;98.90;;;;;;5084234;28;20473;-49
2022/01/10 04:48:12;;;;;;;59.47;9.33;;;1.90;98.50;;;;;;5080541;28;20492;-48
2022/01/10 04:51:10;;;;;;;71.03;9.30;;;1.70;98.40;;;;;;5070000;28;20496;-48
2022/01/10 04:53:39;;;;;;;46.07;8.97;;;1.70;98.90;;;;;;5076526;28;20513;-48
2022/01/10 04:56:06;;;;;;;58.43;10.10;;;1.60;98.90;;;;;;5078042;28;21059;-48
2022/01/10 04:58:34;;;;;;;96.40;12.73;;;1.60;98.80;;;;;;5069728;28;20476;-48
2022/01/10 05:01:02;;;;;;;72.53;10.97;;;1.60;99.00;;;;;;5093219;28;20525;-48
2022/01/10 05:03:30;;;;;;;24.67;6.97;;;1.70;99.10;;;;;;5076473;28;20647;-49
2022/01/10 05:05:57;;;;;;;56.50;9.40;;;1.80;99.10;;;;;;5079455;28;20893;-48
2022/01/10 05:08:24;;;;;;;139.70;12.30;;;1.80;98.70;;;;;;5076897;28;20602;-48
2022/01/10 05:10:53;;;;;;;54.17;8.87;;;1.80;98.70;;;;;;5075580;28;20573;-48
2022/01/10 05:13:21;;;;;;;77.23;9.90;;;1.80;98.80;;;;;;5075663;28;20909;-48
2022/01/10 05:15:50;;;;;;;54.03;9.73;;;1.80;98.60;;;;;;5073934;28;20539;-48
2022/01/10 05:18:18;;;;;;;51.73;10.20;;;1.70;98.70;;;;;;5075444;28;20496;-48
2022/01/10 05:20:44;;;;;;;101.37;10.83;;;1.70;98.90;;;;;;5086131;28;20475;-49
2022/01/10 05:23:11;;;;;;;102.70;12.80;;;1.70;98.90;;;;;;5075253;27;20494;-49
2022/01/10 05:25:40;;;;;;;85.13;11.20;;;1.70;99.20;;;;;;5103058;27;20524;-49
2022/01/10 05:28:10;;;;;;;105.00;14.70;;;1.70;98.70;;;;;;5080745;28;20478;-49
2022/01/10 05:30:38;;;;;;;81.30;9.63;;;1.60;98.40;;;;;;5080141;28;20481;-49
2022/01/10 05:33:07;;;;;;;79.80;10.33;;;1.60;98.70;;;;;;5080141;28;20474;-49
2022/01/10 05:35:34;;;;;;;186.17;16.27;;;1.60;98.90;;;;;;5075015;28;20484;-49
2022/01/10 05:38:01;;;;;;;156.70;16.93;;;1.40;98.70;;;;;;5075341;28;21083;-49
2022/01/10 05:40:28;;;;;;;80.53;10.33;;;1.40;99.00;;;;;;5082661;28;20497;-49
2022/01/10 05:42:55;;;;;;;135.57;15.07;;;1.40;99.10;;;;;;5078641;28;20488;-50
2022/01/10 05:45:23;;;;;;;71.93;11.07;;;1.40;98.80;;;;;;5078681;28;20489;-49
2022/01/10 05:47:50;;;;;;;95.60;11.13;;;1.50;99.00;;;;;;5078117;28;20616;-49
2022/01/10 05:50:20;;;;;;;64.20;9.83;;;1.50;99.00;;;;;;5078435;28;20958;-54
2022/01/10 05:52:48;;;;;;;85.70;9.03;;;1.40;99.00;;;;;;5083591;28;20510;-49
2022/01/10 05:55:15;;;;;;;71.43;8.70;;;1.40;99.10;;;;;;5064541;27;20503;-49
2022/01/10 05:57:42;;;;;;;93.93;11.40;;;1.50;99.00;;;;;;5095100;27;20476;-48
2022/01/10 06:00:10;;;;;;;76.13;10.10;;;1.40;98.90;;;;;;5066023;28;20485;-49
2022/01/10 06:02:37;;;;;;;93.63;9.80;;;1.50;99.20;;;;;;5089656;28;20499;-49
2022/01/10 06:05:09;;;;;;;76.70;10.87;;;1.50;99.10;;;;;;5076915;28;20537;-49
2022/01/10 06:07:36;;;;;;;66.43;9.80;;;1.60;99.00;;;;;;5079222;28;20503;-48
2022/01/10 06:10:04;;;;;;;59.07;10.70;;;1.60;99.00;;;;;;5074069;28;20567;-48
2022/01/10 06:12:31;;;;;;;60.40;8.87;;;1.60;98.90;;;;;;5080857;28;20486;-49
2022/01/10 06:14:58;;;;;;;80.27;10.90;;;1.60;98.80;;;;;;5070568;28;20497;-49
2022/01/10 06:17:25;;;;;;;126.07;18.73;;;1.60;98.80;;;;;;5091678;28;21241;-48
2022/01/10 06:19:53;;;;;;;29.37;6.63;;;1.50;98.70;;;;;;5083958;28;20567;-48
2022/01/10 06:22:20;;;;;;;88.97;10.30;;;1.50;98.60;;;;;;5069497;28;21500;-49
2022/01/10 06:24:47;;;;;;;62.93;8.40;;;1.40;98.90;;;;;;5081551;28;20481;-49
2022/01/10 06:27:14;;;;;;;51.50;11.30;;;1.40;98.80;;;;;;5075461;28;20481;-49
2022/01/10 06:29:40;;;;;;;64.67;8.53;;;1.30;98.60;;;;;;5076426;28;20485;-49
2022/01/10 06:32:08;;;;;;;65.07;9.17;;;1.20;98.70;;;;;;5074040;28;20490;-49
2022/01/10 06:34:34;;;;;;;62.17;6.90;;;1.20;98.70;;;;;;5072781;28;20541;-49
2022/01/10 06:37:03;;;;;;;88.03;10.13;;;1.20;98.80;;;;;;5102241;27;20528;-49
2022/01/10 06:39:30;;;;;;;48.00;8.43;;;1.10;98.60;;;;;;5066040;27;21413;-49
2022/01/10 06:41:56;;;;;;;51.13;8.40;;;1.10;98.80;;;;;;5101441;27;21048;-49
2022/01/10 06:44:23;;;;;;;56.23;7.70;;;1.10;98.80;;;;;;5066740;28;20476;-49
2022/01/10 06:46:50;;;;;;;100.03;11.50;;;1.10;99.00;;;;;;5101296;27;20489;-48
2022/01/10 06:49:17;;;;;;;66.37;9.40;;;1.10;99.00;;;;;;5056248;28;20488;-49
2022/01/10 06:51:43;;;;;;;117.80;11.13;;;1.20;98.90;;;;;;5105214;27;20510;-48
2022/01/10 06:54:12;;;;;;;80.00;10.77;;;1.10;98.40;;;;;;5070443;28;20510;-49
2022/01/10 06:56:38;;;;;;;75.73;8.13;;;1.00;98.50;;;;;;5078459;28;20501;-48
2022/01/10 06:59:05;;;;;;;53.70;12.43;;;1.00;98.70;;;;;;5071048;28;21244;-49
2022/01/10 07:01:32;;;;;;;76.83;11.07;;;1.10;99.10;;;;;;5083247;28;20488;-48
2022/01/10 07:03:59;;;;;;;74.07;10.80;;;1.10;99.20;;;;;;5074331;28;20484;-49
2022/01/10 07:06:26;;;;;;;94.67;9.10;;;1.10;99.10;;;;;;5081997;27;21199;-49
2022/01/10 07:08:52;;;;;;;90.93;12.27;;;1.10;98.80;;;;;;5076295;28;20484;-48
2022/01/10 07:11:21;;;;;;;70.23;9.93;;;1.10;98.80;;;;;;5067928;28;21021;-49
2022/01/10 07:13:48;;;;;;;75.20;11.83;;;1.00;99.00;;;;;;5066611;28;20492;-48
2022/01/10 07:16:14;;;;;;;76.30;12.10;;;1.00;99.20;;;;;;5065176;28;20557;-49
2022/01/10 07:18:41;;;;;;;70.00;12.63;;;1.00;98.80;;;;;;5067566;28;20840;-49
2022/01/10 07:21:08;;;;;;;77.80;11.80;;;0.90;99.00;;;;;;5069781;28;20492;-49
2022/01/10 07:23:35;;;;;;;59.20;9.47;;;0.80;99.00;;;;;;5071515;28;20483;-49
2022/01/10 07:26:02;;;;;;;19.63;7.80;;;0.90;99.20;;;;;;5076090;28;20879;-50
2022/01/10 07:28:30;;;;;;;56.47;9.70;;;0.90;99.00;;;;;;5076055;28;21211;-49
2022/01/10 07:30:57;;;;;;;83.57;16.10;;;0.80;99.10;;;;;;5077951;28;20492;-48
2022/01/10 07:33:23;;;;;;;128.13;15.67;;;0.80;99.00;;;;;;5060899;27;20565;-49
2022/01/10 07:35:50;;;;;;;105.50;11.97;;;0.70;99.10;;;;;;5098625;27;20486;-49
2022/01/10 07:38:17;;;;;;;107.70;12.93;;;0.70;99.30;;;;;;5083205;28;20534;-49
2022/01/10 07:40:44;;;;;;;94.37;13.90;;;0.80;99.40;;;;;;5080323;28;20829;-49
2022/01/10 07:43:11;;;;;;;74.17;11.13;;;0.90;99.60;;;;;;5085428;28;20557;-49
2022/01/10 07:45:39;;;;;;;48.10;10.07;;;1.00;99.20;;;;;;5081774;28;20485;-49
2022/01/10 07:48:06;;;;;;;59.17;8.50;;;1.10;99.30;;;;;;5081487;28;20468;-50
2022/01/10 07:50:33;;;;;;;48.20;8.87;;;1.10;99.10;;;;;;5072175;28;20493;-48
2022/01/10 07:53:00;;;;;;;77.03;11.57;;;1.10;99.10;;;;;;5075092;28;20537;-49
2022/01/10 07:55:26;;;;;;;76.67;10.93;;;1.10;99.00;;;;;;5104957;27;20545;-49
2022/01/10 07:57:53;;;;;;;55.90;12.20;;;1.10;99.10;;;;;;5085949;27;20539;-49
2022/01/10 08:00:20;;;;;;;94.70;12.63;;;1.10;99.10;;;;;;5080179;28;20493;-49
2022/01/10 08:02:48;;;;;;;74.17;10.73;;;1.10;99.00;;;;;;5079044;28;20485;-49
2022/01/10 08:05:15;;;;;;;65.03;11.03;;;1.10;99.10;;;;;;5071616;28;20475;-50
2022/01/10 08:07:42;;;;;;;74.07;12.73;;;1.10;98.90;;;;;;5082277;28;20485;-49
2022/01/10 08:10:09;;;;;;;32.53;8.70;;;1.20;99.00;;;;;;5079006;28;20878;-49
2022/01/10 08:12:36;;;;;;;57.00;9.77;;;1.20;99.00;;;;;;5077659;28;20481;-49
2022/01/10 08:15:04;;;;;;;107.47;12.27;;;1.20;99.00;;;;;;5074123;28;20489;-49
2022/01/10 08:17:31;;;;;;;127.03;14.93;;;1.20;98.70;;;;;;5078206;28;20491;-49
2022/01/10 08:19:59;;;;;;;56.07;10.77;;;1.00;98.90;;;;;;5081399;28;20480;-49
2022/01/10 08:22:25;;;;;;;198.87;19.30;;;1.00;99.00;;;;;;5078959;28;20544;-50
2022/01/10 08:24:53;;;;;;;94.90;13.60;;;0.90;98.90;;;;;;5081730;28;20564;-49
2022/01/10 08:27:19;;;;;;;222.47;20.97;;;0.90;99.40;;;;;;5074588;28;20477;-49
2022/01/10 08:29:48;;;;;;;105.97;16.03;;;0.80;99.10;;;;;;5080192;28;20870;-49
2022/01/10 08:32:15;;;;;;;82.23;11.53;;;0.80;99.30;;;;;;5077620;28;21321;-50
2022/01/10 08:34:42;;;;;;;67.40;11.60;;;0.90;99.70;;;;;;5079618;28;20481;-48
2022/01/10 08:37:11;;;;;;;44.77;11.60;;;1.10;99.80;;;;;;5081221;28;20535;-49
2022/01/10 08:39:38;;;;;;;50.00;10.23;;;1.20;99.60;;;;;;5077269;28;20483;-49
2022/01/10 08:42:05;;;;;;;79.63;13.97;;;1.30;99.60;;;;;;5083938;28;20534;-49
2022/01/10 08:44:32;;;;;;;121.40;15.67;;;1.30;99.40;;;;;;5079880;28;20721;-50
2022/01/10 08:46:59;;;;;;;123.70;18.83;;;1.40;99.30;;;;;;5073151;28;20558;-49
2022/01/10 08:49:26;;;;;;;35.40;10.63;;;1.40;99.30;;;;;;5075091;28;20583;-49
2022/01/10 08:51:55;;;;;;;46.87;11.47;;;1.30;98.80;;;;;;5082579;28;20545;-49
2022/01/10 08:54:23;;;;;;;53.87;11.40;;;1.30;99.40;;;;;;5100940;27;20561;-49
2022/01/10 08:56:51;;;;;;;48.27;10.70;;;1.30;98.90;;;;;;5075565;28;20907;-49
2022/01/10 08:59:17;;;;;;;76.70;12.17;;;1.30;99.40;;;;;;5067823;28;21280;-49
2022/01/10 09:01:46;;;;;;;33.67;9.43;;;1.50;99.60;;;;;;5078950;28;20533;-49
2022/01/10 09:04:15;;;;;;;27.23;8.97;;;1.60;99.80;;;;;;5057625;28;20482;-48
2022/01/10 09:06:43;;;;;;;30.13;9.20;;;1.80;99.70;;;;;;5072098;28;20546;-49
2022/01/10 09:09:10;;;;;;;126.70;14.70;;;1.90;99.80;;;;;;5079184;28;20568;-48
2022/01/10 09:11:38;;;;;;;53.27;11.43;;;2.00;99.30;;;;;;5078757;28;20485;-48
2022/01/10 09:14:06;;;;;;;70.97;13.17;;;1.90;98.70;;;;;;5077290;28;21501;-49
2022/01/10 09:16:33;;;;;;;116.97;15.13;;;1.70;98.60;;;;;;5079503;28;20485;-49
2022/01/10 09:19:00;;;;;;;44.53;10.30;;;1.70;98.90;;;;;;5074740;28;20473;-49
2022/01/10 09:21:27;;;;;;;101.53;13.90;;;1.60;98.90;;;;;;5076928;28;21499;-49
2022/01/10 09:23:54;;;;;;;102.47;15.10;;;1.50;99.10;;;;;;5074474;28;20488;-49
2022/01/10 09:26:20;;;;;;;105.73;15.90;;;1.50;99.10;;;;;;5078943;28;20481;-49
2022/01/10 09:28:49;;;;;;;80.80;14.60;;;1.50;99.30;;;;;;5072335;28;21270;-49
2022/01/10 09:31:16;;;;;;;64.33;12.67;;;1.50;99.20;;;;;;5091007;28;20571;-48
2022/01/10 09:33:47;;;;;;;66.53;9.70;;;1.60;99.40;;;;;;5045173;28;20550;-49
2022/01/10 09:36:14;;;;;;;140.60;15.23;;;1.60;99.20;;;;;;5084542;28;20476;-48
2022/01/10 09:38:41;;;;;;;42.57;8.87;;;1.50;99.30;;;;;;5064498;28;20506;-48
2022/01/10 09:41:08;;;;;;;27.37;7.70;;;1.60;99.90;;;;;;5072387;28;21510;-48
2022/01/10 09:43:35;;;;;;;77.87;10.57;;;1.70;99.90;;;;;;5072823;28;20481;-48
2022/01/10 09:46:03;;;;;;;38.00;8.50;;;1.80;99.70;;;;;;5067764;28;20489;-48
2022/01/10 09:48:30;;;;;;;49.57;9.10;;;1.80;99.70;;;;;;5082813;28;20499;-48
2022/01/10 09:50:57;;;;;;;38.63;8.73;;;1.90;99.80;;;;;;5076556;28;20503;-48
2022/01/10 09:53:24;;;;;;;31.50;8.13;;;1.90;99.60;;;;;;5068250;28;20531;-48
2022/01/10 09:55:51;;;;;;;43.00;10.00;;;2.10;99.80;;;;;;5084333;28;20485;-48
2022/01/10 09:58:18;;;;;;;36.70;7.33;;;2.30;99.90;;;;;;5086298;28;20549;-49
2022/01/10 10:00:45;;;;;;;38.70;7.20;;;2.40;99.70;;;;;;5077706;28;20570;-48
2022/01/10 10:03:13;;;;;;;68.57;8.80;;;2.50;99.70;;;;;;5070748;28;20876;-48
2022/01/10 10:05:40;;;;;;;19.23;5.43;;;2.60;99.60;;;;;;5074149;28;20513;-48
2022/01/10 10:08:06;;;;;;;27.30;7.23;;;2.70;99.50;;;;;;5084144;28;20485;-48
2022/01/10 10:10:33;;;;;;;71.60;9.73;;;2.70;99.30;;;;;;5078108;27;20924;-48
2022/01/10 10:13:00;;;;;;;58.47;9.17;;;2.80;99.10;;;;;;5088654;27;20484;-48
2022/01/10 10:15:31;;;;;;;28.80;7.57;;;2.80;99.30;;;;;;5097252;27;20492;-48
2022/01/10 10:17:57;;;;;;;35.43;8.43;;;2.90;99.40;;;;;;5077163;27;20546;-48
2022/01/10 10:20:26;;;;;;;52.67;13.10;;;3.00;99.30;;;;;;5067312;28;20484;-48
2022/01/10 10:22:54;;;;;;;83.70;15.83;;;3.00;99.20;;;;;;5065561;28;20488;-47
2022/01/10 10:25:22;;;;;;;62.07;13.57;;;3.00;99.10;;;;;;5078257;28;21002;-48
2022/01/10 10:27:49;;;;;;;33.60;9.50;;;3.00;99.00;;;;;;5073081;28;20518;-48
2022/01/10 10:30:20;;;;;;;34.53;6.90;;;3.10;99.10;;;;;;5076383;28;20483;-47
2022/01/10 10:32:47;;;;;;;29.17;7.20;;;3.10;98.70;;;;;;5079942;28;20554;-48
2022/01/10 10:35:15;;;;;;;83.53;11.27;;;3.10;98.80;;;;;;5083379;28;20877;-48
2022/01/10 10:37:44;;;;;;;69.50;10.43;;;3.10;98.80;;;;;;5069829;28;20489;-48
2022/01/10 10:40:14;;;;;;;20.63;6.83;;;3.10;98.40;;;;;;5073875;28;20950;-48
2022/01/10 10:42:42;;;;;;;43.30;8.63;;;3.00;98.70;;;;;;5077076;28;20554;-48
2022/01/10 10:45:12;;;;;;;27.13;7.90;;;3.00;99.10;;;;;;5081156;28;20908;-48
2022/01/10 10:47:43;;;;;;;36.47;7.93;;;3.10;99.10;;;;;;5063726;28;20474;-47
2022/01/10 10:50:11;;;;;;;49.20;9.30;;;3.20;99.20;;;;;;5059020;28;20557;-48
2022/01/10 10:52:41;;;;;;;54.03;10.70;;;3.20;99.20;;;;;;5079109;28;20896;-49
2022/01/10 10:55:12;;;;;;;58.37;19.73;;;3.30;99.20;;;;;;5075400;28;20963;-47
2022/01/10 10:57:39;;;;;;;164.93;17.67;;;3.40;99.30;;;;;;5065722;28;20478;-48
2022/01/10 11:00:09;;;;;;;150.53;20.17;;;3.30;98.60;;;;;;5076583;28;20563;-48
2022/01/10 11:02:36;;;;;;;147.60;20.27;;;3.10;98.70;;;;;;5071051;28;20553;-49
2022/01/10 11:05:05;;;;;;;57.17;12.23;;;2.90;98.70;;;;;;5083710;28;20457;-47
2022/01/10 11:07:34;;;;;;;91.03;13.80;;;3.00;99.90;;;;;;5078053;28;20534;-48
2022/01/10 11:10:02;;;;;;;65.80;12.30;;;3.10;99.80;;;;;;5072389;28;20515;-47
2022/01/10 11:12:32;;;;;;;91.43;15.43;;;3.10;99.50;;;;;;5081135;28;20475;-47
2022/01/10 11:15:00;;;;;;;89.00;15.97;;;3.20;99.00;;;;;;5080726;28;21000;-47
2022/01/10 11:17:28;;;;;;;88.87;16.00;;;3.10;99.30;;;;;;5083058;28;20593;-48
2022/01/10 11:20:09;;;;;;;57.83;12.90;;;3.20;99.70;;;;;;5071400;28;20488;-47
2022/01/10 11:22:37;;;;;;;63.63;12.80;;;3.40;99.90;;;;;;5071265;28;21024;-47
2022/01/10 11:25:05;;;;;;;121.40;22.10;;;3.50;99.90;;;;;;5080831;28;20482;-47
2022/01/10 11:27:35;;;;;;;58.20;14.60;;;3.50;99.50;;;;;;5075852;28;20498;-47
2022/01/10 11:30:29;;;;;;;104.07;25.37;;;3.60;99.20;;;;;;5073170;28;20489;-47
2022/01/10 11:33:01;;;;;;;56.17;19.07;;;3.60;99.30;;;;;;5083033;28;20481;-47
2022/01/10 11:35:30;;;;;;;161.67;19.17;;;3.70;99.40;;;;;;5082006;28;21046;-47
2022/01/10 11:37:57;;;;;;;78.77;13.10;;;3.60;98.80;;;;;;5074746;28;20543;-47
2022/01/10 11:40:25;;;;;;;237.83;25.37;;;3.60;98.60;;;;;;5075888;28;20507;-47
2022/01/10 11:42:58;;;;;;;106.07;15.80;;;3.50;98.70;;;;;;5084856;28;20476;-47
2022/01/10 11:45:26;;;;;;;177.07;19.37;;;3.50;99.20;;;;;;5077496;28;20536;-47
2022/01/10 11:48:17;;;;;;;47.53;12.33;;;3.50;99.20;;;;;;5080348;28;21214;-47
2022/01/10 11:50:46;;;;;;;62.33;12.57;;;3.60;99.40;;;;;;5058541;28;20493;-47
2022/01/10 11:53:16;;;;;;;90.53;25.10;;;3.60;99.50;;;;;;5062309;28;20490;-48
2022/01/10 11:55:45;;;;;;;53.33;11.23;;;3.70;99.50;;;;;;5059962;28;20481;-48
2022/01/10 11:58:18;;;;;;;55.20;12.17;;;3.70;99.30;;;;;;5057377;28;20496;-48
2022/01/10 12:00:45;;;;;;;47.93;13.90;;;3.80;99.70;;;;;;5050419;28;20519;-48
2022/01/10 12:03:13;;;;;;;30.70;11.10;;;3.90;99.70;;;;;;5059260;28;20484;-47
2022/01/10 12:05:40;;;;;;;30.97;10.10;;;4.00;99.70;;;;;;5058106;28;20540;-49
2022/01/10 12:08:08;;;;;;;27.57;9.80;;;4.00;99.60;;;;;;5051528;28;20489;-48
2022/01/10 12:10:35;;;;;;;50.90;14.03;;;4.10;99.40;;;;;;5074600;28;20531;-47
2022/01/10 12:13:05;;;;;;;113.20;19.77;;;4.10;99.20;;;;;;5056361;28;20509;-47
2022/01/10 12:15:37;;;;;;;43.83;11.13;;;4.20;98.80;;;;;;5058978;28;20567;-47
2022/01/10 12:18:05;;;;;;;41.57;13.07;;;4.10;99.00;;;;;;5064560;28;20535;-48
2022/01/10 12:20:32;;;;;;;32.30;10.60;;;4.20;99.40;;;;;;5059607;28;20482;-47
2022/01/10 12:23:00;;;;;;;27.73;9.90;;;4.20;99.30;;;;;;5049845;28;20487;-48
2022/01/10 12:25:28;;;;;;;27.40;8.10;;;4.30;99.40;;;;;;5058975;28;20603;-47
2022/01/10 12:27:58;;;;;;;35.90;9.73;;;4.20;99.10;;;;;;5059192;28;20483;-47
2022/01/10 12:30:26;;;;;;;68.07;10.53;;;4.30;99.60;;;;;;5051746;28;21047;-48
2022/01/10 12:32:55;;;;;;;30.80;10.00;;;4.20;99.40;;;;;;5060321;28;21074;-48
2022/01/10 12:35:21;;;;;;;36.07;8.30;;;4.20;99.80;;;;;;5048596;28;20499;-48
2022/01/10 12:37:50;;;;;;;55.60;11.20;;;4.20;99.50;;;;;;5041635;28;20808;-47
2022/01/10 12:40:16;;;;;;;32.87;9.10;;;4.10;99.50;;;;;;5063344;28;20504;-48
2022/01/10 12:42:48;;;;;;;52.77;10.43;;;4.10;99.70;;;;;;5065127;28;20565;-47
2022/01/10 12:45:16;;;;;;;49.90;9.80;;;4.20;99.80;;;;;;5061298;28;20489;-47
2022/01/10 12:47:47;;;;;;;41.40;8.80;;;4.10;99.50;;;;;;5058601;28;20510;-47